createdAt,value
2023-03-24T00:02:03.100Z,97483.22
2023-03-24T00:04:53.618Z,97475.25
2023-03-24T00:07:43.510Z,97481.06
2023-03-24T00:10:34.702Z,97484.16
2023-03-24T00:13:22.822Z,97475.56
2023-03-24T00:16:13.605Z,97482.28
2023-03-24T00:19:01.476Z,97475.81
2023-03-24T00:21:50.666Z,97482.41
2023-03-24T00:24:38.684Z,97480.69
2023-03-24T00:27:30.271Z,97475.91
2023-03-24T00:30:20.469Z,97467.97
2023-03-24T00:33:08.287Z,97463.47
2023-03-24T00:35:57.825Z,97467.09
2023-03-24T00:39:12.515Z,97455.06
2023-03-24T00:42:01.788Z,97454.41
2023-03-24T00:44:49.928Z,97453.78
2023-03-24T00:47:38.581Z,97468.44
2023-03-24T00:50:27.603Z,97470.34
2023-03-24T00:53:17.014Z,97477.56
2023-03-24T00:56:06.832Z,97482.03
2023-03-24T00:58:57.759Z,97476.72
2023-03-24T01:01:45.693Z,97467.94
2023-03-24T01:04:36.278Z,97465.63
2023-03-24T01:07:25.425Z,97464.97
2023-03-24T01:10:15.495Z,97461.69
2023-03-24T01:13:05.414Z,97447.06
2023-03-24T01:15:54.783Z,97435.16
2023-03-24T01:18:42.866Z,97434.44
2023-03-24T01:21:31.838Z,97444.38
2023-03-24T01:24:19.639Z,97437.50
2023-03-24T01:27:07.861Z,97452.72
2023-03-24T01:30:01.977Z,97452.47
2023-03-24T01:32:49.961Z,97456.81
2023-03-24T01:35:38.427Z,97459.81
2023-03-24T01:38:26.394Z,97458.34
2023-03-24T01:41:14.288Z,97458.88
2023-03-24T01:44:03.026Z,97459.69
2023-03-24T01:46:52.500Z,97452.25
2023-03-24T01:49:44.428Z,97453.94
2023-03-24T01:52:36.058Z,97449.53
2023-03-24T01:55:25.260Z,97428.47
2023-03-24T01:58:14.004Z,97421.50
2023-03-24T02:01:02.488Z,97413.34
2023-03-24T02:03:52.960Z,97408.75
2023-03-24T02:06:45.026Z,97399.63
2023-03-24T02:09:33.913Z,97396.78
2023-03-24T02:12:21.999Z,97385.34
2023-03-24T02:15:11.093Z,97382.22
2023-03-24T02:18:08.303Z,97385.72
2023-03-24T02:21:42.711Z,97383.66
2023-03-24T02:25:01.331Z,97381.31
2023-03-24T02:28:15.711Z,97370.47
2023-03-24T02:31:42.697Z,97364.44
2023-03-24T02:35:11.636Z,97346.28
2023-03-24T02:38:43.734Z,97347.63
2023-03-24T02:41:40.811Z,97345.72
2023-03-24T02:44:39.015Z,97336.00
2023-03-24T02:47:32.988Z,97336.00
2023-03-24T02:50:29.300Z,97332.88
2023-03-24T02:53:22.862Z,97324.25
2023-03-24T02:56:16.506Z,97323.25
2023-03-24T02:59:08.107Z,97321.13
2023-03-24T03:02:02.963Z,97319.09
2023-03-24T03:04:56.075Z,97321.31
2023-03-24T03:07:46.144Z,97308.38
2023-03-24T03:10:37.532Z,97301.84
2023-03-24T03:13:30.626Z,97310.84
2023-03-24T03:16:25.320Z,97309.47
2023-03-24T03:19:18.807Z,97303.75
2023-03-24T03:22:14.677Z,97300.03
2023-03-24T03:25:05.233Z,97311.84
2023-03-24T03:27:56.675Z,97307.88
2023-03-24T03:30:49.699Z,97295.03
2023-03-24T03:33:45.637Z,97287.25
2023-03-24T03:36:39.484Z,97285.41
2023-03-24T03:39:32.132Z,97280.91
2023-03-24T03:42:20.508Z,97281.81
2023-03-24T03:45:11.043Z,97281.38
2023-03-24T03:47:59.336Z,97291.94
2023-03-24T03:50:51.894Z,97292.69
2023-03-24T03:53:50.062Z,97293.69
2023-03-24T03:56:39.435Z,97292.69
2023-03-24T03:59:29.902Z,97296.72
2023-03-24T04:02:38.098Z,97291.78
2023-03-24T04:05:29.942Z,97294.53
2023-03-24T04:08:29.686Z,97294.53
2023-03-24T04:11:46.313Z,97287.91
2023-03-24T04:15:19.252Z,97297.94
2023-03-24T04:18:46.038Z,97283.38
2023-03-24T04:21:51.740Z,97282.06
2023-03-24T04:24:49.913Z,97283.72
2023-03-24T04:27:46.532Z,97284.16
2023-03-24T04:30:43.956Z,97280.53
2023-03-24T04:33:39.238Z,97284.00
2023-03-24T04:36:34.590Z,97280.72
2023-03-24T04:39:28.260Z,97280.59
2023-03-24T04:42:22.173Z,97279.56
2023-03-24T04:45:12.254Z,97275.28
2023-03-24T04:48:04.565Z,97267.13
2023-03-24T04:50:56.848Z,97274.44
2023-03-24T04:53:44.637Z,97271.59
2023-03-24T04:56:40.340Z,97263.06
2023-03-24T04:59:29.853Z,97264.09
2023-03-24T05:02:18.710Z,97272.53
2023-03-24T05:05:08.958Z,97253.25
2023-03-24T05:07:57.106Z,97241.34
2023-03-24T05:10:46.380Z,97235.13
2023-03-24T05:13:34.155Z,97231.81
2023-03-24T05:16:23.734Z,97240.81
2023-03-24T05:19:12.213Z,97237.13
2023-03-24T05:22:01.181Z,97247.84
2023-03-24T05:24:48.930Z,97249.34
2023-03-24T05:27:37.022Z,97251.13
2023-03-24T05:30:25.078Z,97244.41
2023-03-24T05:33:14.287Z,97254.81
2023-03-24T05:36:02.409Z,97261.25
2023-03-24T05:38:50.481Z,97262.25
2023-03-24T05:41:38.525Z,97269.97
2023-03-24T05:44:26.704Z,97269.59
2023-03-24T05:47:16.123Z,97265.00
2023-03-24T05:50:05.842Z,97274.81
2023-03-24T05:52:53.716Z,97273.44
2023-03-24T05:55:41.681Z,97278.00
2023-03-24T05:58:29.472Z,97281.38
2023-03-24T06:01:18.409Z,97282.03
2023-03-24T06:04:06.591Z,97287.09
2023-03-24T06:06:55.979Z,97289.72
2023-03-24T06:09:47.068Z,97288.63
2023-03-24T06:12:35.539Z,97297.63
2023-03-24T06:15:24.326Z,97295.00
2023-03-24T06:18:14.113Z,97293.53
2023-03-24T06:21:02.167Z,97287.31
2023-03-24T06:23:51.294Z,97291.16
2023-03-24T06:26:42.148Z,97299.56
2023-03-24T06:29:31.107Z,97294.25
2023-03-24T06:32:20.754Z,97296.91
2023-03-24T06:35:09.311Z,97304.78
2023-03-24T06:37:57.219Z,97311.31
2023-03-24T06:40:46.501Z,97307.03
2023-03-24T06:43:34.836Z,97321.72
2023-03-24T06:46:22.836Z,97318.75
2023-03-24T06:49:10.974Z,97332.94
2023-03-24T06:51:58.908Z,97348.72
2023-03-24T06:54:46.718Z,97340.16
2023-03-24T06:57:36.793Z,97337.38
2023-03-24T07:00:25.808Z,97353.53
2023-03-24T07:03:14.253Z,97367.75
2023-03-24T07:06:02.454Z,97363.38
2023-03-24T07:08:50.745Z,97368.53
2023-03-24T07:11:41.320Z,97370.41
2023-03-24T07:14:30.483Z,97362.88
2023-03-24T07:17:18.340Z,97372.41
2023-03-24T07:20:08.400Z,97378.53
2023-03-24T07:22:57.675Z,97371.38
2023-03-24T07:25:45.879Z,97374.88
2023-03-24T07:28:33.658Z,97365.50
2023-03-24T07:31:24.735Z,97371.47
2023-03-24T07:34:13.259Z,97374.56
2023-03-24T07:37:02.134Z,97369.03
2023-03-24T07:39:50.128Z,97380.16
2023-03-24T07:42:38.672Z,97373.19
2023-03-24T07:45:28.296Z,97379.41
2023-03-24T07:48:17.742Z,97381.31
2023-03-24T07:51:05.762Z,97380.84
2023-03-24T07:53:53.449Z,97380.56
2023-03-24T07:56:42.078Z,97377.75
2023-03-24T07:59:30.207Z,97367.91
2023-03-24T08:02:19.756Z,97365.06
2023-03-24T08:05:10.356Z,97366.97
2023-03-24T08:08:00.232Z,97366.44
2023-03-24T08:10:50.484Z,97372.63
2023-03-24T08:13:38.525Z,97371.19
2023-03-24T08:16:26.679Z,97383.31
2023-03-24T08:19:14.678Z,97387.69
2023-03-24T08:22:04.972Z,97380.50
2023-03-24T08:24:52.842Z,97379.88
2023-03-24T08:27:44.901Z,97382.19
2023-03-24T08:30:33.256Z,97381.81
2023-03-24T08:33:21.319Z,97378.75
2023-03-24T08:36:09.595Z,97385.13
2023-03-24T08:38:59.775Z,97389.03
2023-03-24T08:41:50.101Z,97386.56
2023-03-24T08:44:37.871Z,97389.63
2023-03-24T08:47:26.247Z,97399.31
2023-03-24T08:50:14.330Z,97397.88
2023-03-24T08:53:02.947Z,97395.03
2023-03-24T08:55:52.590Z,97395.88
2023-03-24T08:58:40.648Z,97403.44
2023-03-24T09:01:28.611Z,97406.09
2023-03-24T09:04:16.652Z,97408.97
2023-03-24T09:07:04.757Z,97410.59
2023-03-24T09:09:52.609Z,97413.09
2023-03-24T09:12:43.695Z,97418.59
2023-03-24T09:15:31.623Z,97422.69
2023-03-24T09:18:20.866Z,97422.47
2023-03-24T09:21:09.504Z,97421.31
2023-03-24T09:23:57.278Z,97430.56
2023-03-24T09:26:45.357Z,97416.16
2023-03-24T09:29:34.810Z,97405.78
2023-03-24T09:32:23.149Z,97402.88
2023-03-24T09:35:11.240Z,97412.72
2023-03-24T09:38:01.356Z,97420.09
2023-03-24T09:40:55.195Z,97417.88
2023-03-24T09:43:46.232Z,97417.75
2023-03-24T09:46:39.050Z,97416.97
2023-03-24T09:49:32.564Z,97412.44
2023-03-24T09:52:25.878Z,97414.34
2023-03-24T09:55:18.409Z,97412.59
2023-03-24T09:58:09.100Z,97410.88
2023-03-24T10:00:57.630Z,97427.69
2023-03-24T10:03:47.935Z,97417.09
2023-03-24T10:06:41.849Z,97428.63
2023-03-24T10:09:32.100Z,97412.22
2023-03-24T10:12:28.653Z,97419.06
2023-03-24T10:15:50.074Z,97416.22
2023-03-24T10:18:39.151Z,97398.00
2023-03-24T10:21:33.514Z,97407.47
2023-03-24T10:24:28.884Z,97403.00
2023-03-24T10:27:24.786Z,97395.38
2023-03-24T10:30:18.098Z,97399.38
2023-03-24T10:33:06.287Z,97400.19
2023-03-24T10:36:02.035Z,97381.22
2023-03-24T10:38:51.585Z,97383.97
2023-03-24T10:41:42.187Z,97392.59
2023-03-24T10:44:31.068Z,97387.88
2023-03-24T10:47:23.709Z,97379.69
2023-03-24T10:50:14.644Z,97390.13
2023-03-24T10:53:10.835Z,97388.41
2023-03-24T10:56:00.796Z,97389.50
2023-03-24T10:58:49.443Z,97389.50
2023-03-24T11:01:39.910Z,97403.31
2023-03-24T11:04:29.495Z,97408.25
2023-03-24T11:07:20.850Z,97396.56
2023-03-24T11:10:17.060Z,97396.97
2023-03-24T11:13:08.015Z,97397.78
2023-03-24T11:16:05.657Z,97391.22
2023-03-24T11:18:59.723Z,97382.16
2023-03-24T11:21:49.538Z,97383.00
2023-03-24T11:24:39.077Z,97389.16
2023-03-24T11:27:27.260Z,97384.47
2023-03-24T11:30:17.370Z,97373.53
2023-03-24T11:33:07.198Z,97367.97
2023-03-24T11:36:05.217Z,97380.16
2023-03-24T11:39:02.300Z,97376.25
2023-03-24T11:42:07.545Z,97372.31
2023-03-24T11:44:56.494Z,97366.75
2023-03-24T11:47:45.858Z,97369.03
2023-03-24T11:50:38.904Z,97370.47
2023-03-24T11:53:33.730Z,97359.56
2023-03-24T11:56:28.707Z,97347.59
2023-03-24T11:59:30.040Z,97353.97
2023-03-24T12:02:26.501Z,97342.44
2023-03-24T12:05:30.264Z,97338.09
2023-03-24T12:08:28.118Z,97329.66
2023-03-24T12:11:23.807Z,97321.84
2023-03-24T12:14:11.580Z,97324.09
2023-03-24T12:17:07.863Z,97311.72
2023-03-24T12:20:09.787Z,97313.34
2023-03-24T12:23:05.608Z,97317.72
2023-03-24T12:26:22.013Z,97317.69
2023-03-24T12:29:38.317Z,97298.97
2023-03-24T12:32:43.233Z,97293.97
2023-03-24T12:35:53.160Z,97290.44
2023-03-24T12:38:56.337Z,97274.50
2023-03-24T12:41:56.088Z,97266.19
2023-03-24T12:45:06.875Z,97259.41
2023-03-24T12:48:21.180Z,97265.31
2023-03-24T12:51:21.896Z,97265.28
2023-03-24T12:54:24.226Z,97264.91
2023-03-24T12:57:15.450Z,97286.72
2023-03-24T13:00:11.849Z,97323.31
2023-03-24T13:03:02.265Z,97356.53
2023-03-24T13:06:01.949Z,97324.84
2023-03-24T13:09:08.103Z,97317.09
2023-03-24T13:12:08.077Z,97325.34
2023-03-24T13:15:04.414Z,97330.13
2023-03-24T13:18:08.601Z,97332.38
2023-03-24T13:21:01.977Z,97328.69
2023-03-24T13:23:57.317Z,97341.03
2023-03-24T13:26:54.150Z,97335.47
2023-03-24T13:30:21.816Z,97339.59
2023-03-24T13:33:16.034Z,97317.75
2023-03-24T13:36:20.813Z,97336.94
2023-03-24T13:39:15.572Z,97346.34
2023-03-24T13:42:04.507Z,97357.06
2023-03-24T13:44:52.340Z,97353.59
2023-03-24T13:47:53.805Z,97352.53
2023-03-24T13:50:51.423Z,97362.81
2023-03-24T13:53:41.440Z,97356.22
2023-03-24T13:56:34.169Z,97372.69
2023-03-24T13:59:29.490Z,97366.31
2023-03-24T14:02:24.438Z,97357.25
2023-03-24T14:05:29.908Z,97350.91
2023-03-24T14:08:19.175Z,97355.19
2023-03-24T14:11:11.665Z,97350.25
2023-03-24T14:14:08.952Z,97363.19
2023-03-24T14:17:15.528Z,97373.09
2023-03-24T14:20:25.604Z,97370.00
2023-03-24T14:23:25.157Z,97379.84
2023-03-24T14:26:16.219Z,97373.25
2023-03-24T14:29:04.477Z,97370.34
2023-03-24T14:32:17.282Z,97371.97
2023-03-24T14:35:34.313Z,97368.25
2023-03-24T14:38:26.041Z,97375.00
2023-03-24T14:41:23.367Z,97355.69
2023-03-24T14:44:11.448Z,97360.41
2023-03-24T14:47:00.553Z,97372.53
2023-03-24T14:49:50.834Z,97381.53
2023-03-24T14:52:45.902Z,97395.94
2023-03-24T14:55:35.871Z,97389.75
2023-03-24T14:58:27.910Z,97390.78
2023-03-24T15:01:17.286Z,97385.19
2023-03-24T15:04:08.060Z,97388.69
2023-03-24T15:06:56.197Z,97391.38
2023-03-24T15:09:51.477Z,97390.06
2023-03-24T15:12:39.174Z,97394.13
2023-03-24T15:15:28.975Z,97399.44
2023-03-24T15:18:19.556Z,97398.34
2023-03-24T15:21:17.242Z,97395.97
2023-03-24T15:24:26.373Z,97383.28
2023-03-24T15:27:31.690Z,97391.25
2023-03-24T15:30:20.618Z,97388.75
2023-03-24T15:33:11.454Z,97381.75
2023-03-24T15:36:02.510Z,97381.91
2023-03-24T15:38:53.250Z,97374.81
2023-03-24T15:41:41.069Z,97383.69
2023-03-24T15:44:31.567Z,97373.03
2023-03-24T15:47:23.881Z,97366.63
2023-03-24T15:50:30.727Z,97365.50
2023-03-24T15:53:27.216Z,97368.31
2023-03-24T15:56:19.850Z,97351.66
2023-03-24T15:59:16.189Z,97357.38
2023-03-24T16:02:11.844Z,97356.03
2023-03-24T16:05:10.983Z,97361.81
2023-03-24T16:08:01.326Z,97367.34
2023-03-24T16:10:59.691Z,97377.47
2023-03-24T16:13:47.914Z,97385.94
2023-03-24T16:16:39.384Z,97386.38
2023-03-24T16:19:29.295Z,97378.13
2023-03-24T16:22:16.930Z,97385.47
2023-03-24T16:25:05.134Z,97382.56
2023-03-24T16:27:53.113Z,97380.28
2023-03-24T16:30:44.085Z,97387.63
2023-03-24T16:33:32.663Z,97345.53
2023-03-24T16:36:23.552Z,97367.22
2023-03-24T16:39:16.984Z,97351.78
2023-03-24T16:42:04.868Z,97360.81
2023-03-24T16:44:52.456Z,97359.97
2023-03-24T16:47:40.572Z,97361.81
2023-03-24T16:50:33.072Z,97360.16
2023-03-24T16:53:22.840Z,97361.28
2023-03-24T16:56:12.982Z,97378.13
2023-03-24T16:59:00.761Z,97372.28
2023-03-24T17:01:49.482Z,97373.56
2023-03-24T17:04:37.715Z,97378.91
2023-03-24T17:07:25.635Z,97384.41
2023-03-24T17:10:15.326Z,97387.25
2023-03-24T17:13:03.349Z,97381.09
2023-03-24T17:15:52.168Z,97378.63
2023-03-24T17:18:39.930Z,97379.56
2023-03-24T17:21:28.148Z,97376.47
2023-03-24T17:24:16.818Z,97379.88
2023-03-24T17:27:11.123Z,97379.56
2023-03-24T17:29:58.997Z,97387.00
2023-03-24T17:32:46.921Z,97382.94
2023-03-24T17:35:34.659Z,97388.66
2023-03-24T17:38:22.647Z,97387.53
2023-03-24T17:41:10.829Z,97387.47
2023-03-24T17:43:59.942Z,97388.38
2023-03-24T17:46:49.821Z,97397.75
2023-03-24T17:49:38.099Z,97403.06
2023-03-24T17:52:26.699Z,97404.59
2023-03-24T17:55:16.192Z,97388.63
2023-03-24T17:58:04.226Z,97390.53
2023-03-24T18:00:54.157Z,97397.91
2023-03-24T18:03:42.963Z,97402.38
2023-03-24T18:06:30.797Z,97389.34
2023-03-24T18:09:18.663Z,97399.34
2023-03-24T18:12:07.085Z,97403.91
2023-03-24T18:14:55.300Z,97415.88
2023-03-24T18:17:44.738Z,97408.66
2023-03-24T18:20:33.004Z,97411.38
2023-03-24T18:23:21.300Z,97410.97
2023-03-24T18:26:10.390Z,97411.53
2023-03-24T18:28:58.419Z,97408.78
2023-03-24T18:31:46.362Z,97410.34
2023-03-24T18:34:35.932Z,97415.66
2023-03-24T18:37:23.985Z,97423.09
2023-03-24T18:40:14.860Z,97416.84
2023-03-24T18:43:02.646Z,97425.34
2023-03-24T18:45:50.920Z,97436.31
2023-03-24T18:48:39.924Z,97421.06
2023-03-24T18:51:29.648Z,97434.81
2023-03-24T18:54:17.193Z,97439.34
2023-03-24T18:57:05.390Z,97440.72
2023-03-24T18:59:53.226Z,97433.59
2023-03-24T19:02:41.187Z,97437.63
2023-03-24T19:05:29.982Z,97449.41
2023-03-24T19:08:19.034Z,97454.75
2023-03-24T19:11:07.552Z,97451.78
2023-03-24T19:13:57.961Z,97463.06
2023-03-24T19:16:45.971Z,97464.88
2023-03-24T19:19:33.974Z,97459.28
2023-03-24T19:22:22.180Z,97464.41
2023-03-24T19:25:11.729Z,97468.41
2023-03-24T19:27:59.930Z,97465.09
2023-03-24T19:30:47.687Z,97472.06
2023-03-24T19:33:36.203Z,97472.75
2023-03-24T19:36:25.527Z,97467.78
2023-03-24T19:39:14.694Z,97478.22
2023-03-24T19:42:07.674Z,97471.59
2023-03-24T19:44:55.877Z,97469.63
2023-03-24T19:47:45.894Z,97471.09
2023-03-24T19:50:34.309Z,97473.91
2023-03-24T19:53:23.672Z,97486.53
2023-03-24T19:56:12.009Z,97477.56
2023-03-24T19:59:01.553Z,97492.97
2023-03-24T20:01:49.826Z,97497.63
2023-03-24T20:04:37.507Z,97496.78
2023-03-24T20:07:26.550Z,97499.94
2023-03-24T20:10:14.808Z,97499.25
2023-03-24T20:13:02.822Z,97500.22
2023-03-24T20:15:52.491Z,97501.22
2023-03-24T20:18:40.743Z,97489.00
2023-03-24T20:21:30.020Z,97496.25
2023-03-24T20:24:17.851Z,97506.66
2023-03-24T20:27:06.289Z,97506.81
2023-03-24T20:29:54.474Z,97510.47
2023-03-24T20:32:43.803Z,97500.84
2023-03-24T20:35:32.650Z,97503.31
2023-03-24T20:38:21.361Z,97497.50
2023-03-24T20:41:09.517Z,97504.13
2023-03-24T20:43:57.509Z,97506.09
2023-03-24T20:46:45.993Z,97509.34
2023-03-24T20:49:35.476Z,97506.22
2023-03-24T20:52:24.320Z,97505.53
2023-03-24T20:55:12.442Z,97513.13
2023-03-24T20:58:01.292Z,97503.84
2023-03-24T21:00:51.854Z,97509.59
2023-03-24T21:03:40.794Z,97505.78
2023-03-24T21:06:31.730Z,97509.91
2023-03-24T21:09:22.232Z,97512.88
2023-03-24T21:12:10.245Z,97515.97
2023-03-24T21:14:59.785Z,97503.22
2023-03-24T21:17:48.018Z,97505.53
2023-03-24T21:20:37.246Z,97502.53
2023-03-24T21:23:32.659Z,97502.84
2023-03-24T21:26:21.117Z,97499.84
2023-03-24T21:29:09.094Z,97502.97
2023-03-24T21:31:56.932Z,97514.00
2023-03-24T21:34:45.035Z,97505.69
2023-03-24T21:37:32.704Z,97514.25
2023-03-24T21:40:24.736Z,97508.47
2023-03-24T21:43:14.764Z,97507.41
2023-03-24T21:46:04.089Z,97508.53
2023-03-24T21:48:55.413Z,97516.44
2023-03-24T21:51:44.590Z,97518.69
2023-03-24T21:54:33.305Z,97514.84
2023-03-24T21:57:22.300Z,97513.66
2023-03-24T22:00:14.650Z,97515.91
2023-03-24T22:03:03.711Z,97508.31
2023-03-24T22:05:51.928Z,97517.41
2023-03-24T22:08:43.495Z,97517.34
2023-03-24T22:11:31.636Z,97529.56
2023-03-24T22:14:21.148Z,97530.50
2023-03-24T22:17:08.905Z,97538.59
2023-03-24T22:19:56.692Z,97538.81
2023-03-24T22:22:45.148Z,97535.88
2023-03-24T22:25:34.335Z,97546.09
2023-03-24T22:28:22.104Z,97546.69
2023-03-24T22:31:12.913Z,97544.41
2023-03-24T22:34:00.916Z,97540.00
2023-03-24T22:36:48.882Z,97533.66
2023-03-24T22:39:36.812Z,97540.50
2023-03-24T22:42:24.876Z,97534.25
2023-03-24T22:45:12.950Z,97538.94
2023-03-24T22:48:02.209Z,97550.47
2023-03-24T22:50:50.972Z,97546.47
2023-03-24T22:53:38.981Z,97557.91
2023-03-24T22:56:26.870Z,97563.59
2023-03-24T22:59:15.026Z,97567.69
2023-03-24T23:02:09.144Z,97572.19
2023-03-24T23:04:59.304Z,97581.91
2023-03-24T23:07:47.549Z,97591.41
2023-03-24T23:10:35.584Z,97616.97
2023-03-24T23:13:23.648Z,97619.94
2023-03-24T23:16:11.485Z,97616.63
2023-03-24T23:18:59.208Z,97598.44
2023-03-24T23:21:48.561Z,97606.53
2023-03-24T23:24:39.262Z,97600.59
2023-03-24T23:27:27.200Z,97602.09
2023-03-24T23:30:16.349Z,97604.03
2023-03-24T23:33:04.721Z,97604.88
2023-03-24T23:35:58.195Z,97598.75
2023-03-24T23:38:50.536Z,97605.72
2023-03-24T23:41:38.728Z,97600.28
2023-03-24T23:44:26.698Z,97597.63
2023-03-24T23:47:14.514Z,97598.44
2023-03-24T23:50:02.721Z,97601.41
2023-03-24T23:52:50.876Z,97598.75
2023-03-24T23:55:41.684Z,97599.06
2023-03-24T23:58:31.200Z,97600.03
